createdAt,value
2019-02-19T00:03:04.713Z,101304.71
2019-02-19T00:08:14.628Z,101308.84
2019-02-19T00:13:24.591Z,101310.31
2019-02-19T00:18:37.394Z,101311.28
2019-02-19T00:23:53.032Z,101317.54
2019-02-19T00:29:03.853Z,101320.78
2019-02-19T00:34:16.394Z,101321.23
2019-02-19T00:39:30.022Z,101317.12
2019-02-19T00:44:40.127Z,101323.40
2019-02-19T00:49:49.531Z,101320.44
2019-02-19T00:54:57.243Z,101321.83
2019-02-19T01:00:08.917Z,101322.80
2019-02-19T01:05:23.211Z,101308.03
2019-02-19T01:10:38.541Z,101329.86
2019-02-19T01:15:51.113Z,101336.13
2019-02-19T01:21:01.055Z,101336.25
2019-02-19T01:26:12.049Z,101342.06
2019-02-19T01:31:25.672Z,101346.22
2019-02-19T01:36:40.142Z,101347.66
2019-02-19T01:41:47.498Z,101345.15
2019-02-19T01:47:00.163Z,101331.80
2019-02-19T01:52:11.788Z,101341.31
2019-02-19T01:57:25.450Z,101327.06
2019-02-19T02:02:38.634Z,101327.06
2019-02-19T02:07:50.546Z,101329.73
2019-02-19T02:13:01.551Z,101325.09
2019-02-19T02:18:08.620Z,101312.21
2019-02-19T02:23:19.513Z,101324.45
2019-02-19T02:28:30.648Z,101317.55
2019-02-19T02:33:40.836Z,101314.16
2019-02-19T02:38:51.048Z,101311.63
2019-02-19T02:43:58.394Z,101311.67
2019-02-19T02:49:06.886Z,101315.27
2019-02-19T02:54:16.837Z,101323.98
2019-02-19T02:59:25.789Z,101311.56
2019-02-19T03:04:36.771Z,101320.33
2019-02-19T03:09:52.168Z,101321.26
2019-02-19T03:15:05.738Z,101315.98
2019-02-19T03:20:18.088Z,101322.98
2019-02-19T03:25:33.085Z,101333.11
2019-02-19T03:30:45.831Z,101329.14
2019-02-19T03:35:56.332Z,101330.50
2019-02-19T03:41:04.511Z,101324.45
2019-02-19T03:46:13.483Z,101326.98
2019-02-19T03:51:30.661Z,101333.39
2019-02-19T03:56:45.225Z,101346.36
2019-02-19T04:01:57.000Z,101341.22
2019-02-19T04:07:12.754Z,101338.63
2019-02-19T04:12:23.594Z,101337.78
2019-02-19T04:17:37.516Z,101342.23
2019-02-19T04:22:51.463Z,101351.83
2019-02-19T04:28:02.376Z,101371.78
2019-02-19T04:33:10.536Z,101378.27
2019-02-19T04:38:18.617Z,101366.64
2019-02-19T04:43:23.713Z,101370.12
2019-02-19T04:48:36.781Z,101371.02
2019-02-19T04:53:49.863Z,101374.64
2019-02-19T04:58:57.706Z,101365.15
2019-02-19T05:04:04.311Z,101379.52
2019-02-19T05:09:15.181Z,101393.44
2019-02-19T05:14:26.388Z,101397.00
2019-02-19T05:19:40.101Z,101398.33
2019-02-19T05:24:53.740Z,101395.86
2019-02-19T05:30:04.613Z,101394.55
2019-02-19T05:35:34.734Z,101395.88
2019-02-19T05:40:43.031Z,101392.91
2019-02-19T05:45:54.971Z,101404.33
2019-02-19T05:51:05.068Z,101396.66
2019-02-19T05:56:15.018Z,101408.57
2019-02-19T06:01:27.657Z,101403.50
2019-02-19T06:06:39.436Z,101409.25
2019-02-19T06:11:53.095Z,101412.45
2019-02-19T06:17:07.336Z,101420.30
2019-02-19T06:22:17.163Z,101416.92
2019-02-19T06:27:27.398Z,101428.26
2019-02-19T06:32:36.420Z,101429.17
2019-02-19T06:37:45.437Z,101437.50
2019-02-19T06:43:02.763Z,101444.10
2019-02-19T06:48:16.403Z,101452.38
2019-02-19T06:53:26.397Z,101455.88
2019-02-19T06:58:35.462Z,101465.89
2019-02-19T07:04:00.241Z,101459.84
2019-02-19T07:09:12.205Z,101462.49
2019-02-19T07:14:24.776Z,101475.50
2019-02-19T07:19:38.597Z,101477.27
2019-02-19T07:24:52.988Z,101485.51
2019-02-19T07:30:07.477Z,101492.36
2019-02-19T07:35:18.581Z,101497.05
2019-02-19T07:40:31.147Z,101500.45
2019-02-19T07:45:42.339Z,101501.70
2019-02-19T07:50:53.170Z,101512.11
2019-02-19T07:56:06.693Z,101515.05
2019-02-19T08:01:14.372Z,101506.27
2019-02-19T08:06:28.871Z,101516.21
2019-02-19T08:11:44.963Z,101517.84
2019-02-19T08:17:02.059Z,101525.05
2019-02-19T08:22:16.459Z,101529.60
2019-02-19T08:27:29.924Z,101529.55
2019-02-19T08:32:45.256Z,101533.53
2019-02-19T08:37:55.665Z,101547.92
2019-02-19T08:43:05.637Z,101553.97
2019-02-19T08:48:18.313Z,101553.99
2019-02-19T08:53:30.917Z,101556.03
2019-02-19T08:58:46.085Z,101565.43
2019-02-19T09:03:53.926Z,101565.56
2019-02-19T09:09:05.616Z,101573.50
2019-02-19T09:14:19.173Z,101575.87
2019-02-19T09:19:28.101Z,101577.08
2019-02-19T09:24:38.948Z,101578.97
2019-02-19T09:29:49.766Z,101587.52
2019-02-19T09:34:58.951Z,101584.59
2019-02-19T09:40:08.355Z,101588.36
2019-02-19T09:45:18.547Z,101587.33
2019-02-19T09:50:31.237Z,101592.44
2019-02-19T09:55:43.821Z,101596.23
2019-02-19T10:00:51.268Z,101601.20
2019-02-19T10:06:01.189Z,101608.55
2019-02-19T10:11:12.867Z,101608.44
2019-02-19T10:16:26.741Z,101608.35
2019-02-19T10:21:36.576Z,101607.81
2019-02-19T10:26:49.682Z,101611.09
2019-02-19T10:31:59.908Z,101611.29
2019-02-19T10:37:14.346Z,101626.48
2019-02-19T10:42:25.735Z,101619.38
2019-02-19T10:47:38.369Z,101629.20
2019-02-19T10:52:51.875Z,101625.03
2019-02-19T10:58:00.886Z,101630.28
2019-02-19T11:03:08.621Z,101634.48
2019-02-19T11:08:18.000Z,101631.73
2019-02-19T11:13:30.636Z,101630.98
2019-02-19T11:18:37.609Z,101632.44
2019-02-19T11:23:54.868Z,101625.67
2019-02-19T11:29:07.479Z,101625.25
2019-02-19T11:34:18.290Z,101614.55
2019-02-19T11:39:28.623Z,101616.14
2019-02-19T11:44:42.278Z,101626.02
2019-02-19T11:49:53.102Z,101622.06
2019-02-19T11:55:03.929Z,101622.10
2019-02-19T12:00:15.370Z,101621.21
2019-02-19T12:05:25.610Z,101621.63
2019-02-19T12:10:53.828Z,101622.91
2019-02-19T12:16:06.438Z,101603.20
2019-02-19T12:21:19.779Z,101608.19
2019-02-19T12:26:29.725Z,101609.09
2019-02-19T12:31:39.620Z,101602.39
2019-02-19T12:36:52.258Z,101608.33
2019-02-19T12:42:04.042Z,101594.23
2019-02-19T12:47:16.645Z,101607.31
2019-02-19T12:52:29.769Z,101610.61
2019-02-19T12:57:45.100Z,101601.62
2019-02-19T13:02:58.538Z,101614.23
2019-02-19T13:08:13.153Z,101608.98
2019-02-19T13:13:28.451Z,101608.98
2019-02-19T13:18:39.339Z,101604.33
2019-02-19T13:23:48.331Z,101609.42
2019-02-19T13:28:56.555Z,101611.86
2019-02-19T13:34:12.073Z,101612.67
2019-02-19T13:39:22.853Z,101616.34
2019-02-19T13:44:32.805Z,101617.11
2019-02-19T13:49:41.421Z,101617.50
2019-02-19T13:54:56.908Z,101622.81
2019-02-19T14:00:13.991Z,101619.11
2019-02-19T14:05:26.465Z,101624.00
2019-02-19T14:10:40.017Z,101629.69
2019-02-19T14:16:13.997Z,101639.66
2019-02-19T14:21:53.134Z,101625.59
2019-02-19T14:27:19.592Z,101632.05
2019-02-19T14:32:45.918Z,101638.66
2019-02-19T14:38:05.647Z,101627.72
2019-02-19T14:43:42.691Z,101636.08
2019-02-19T14:49:11.117Z,101643.07
2019-02-19T14:54:33.669Z,101649.28
2019-02-19T14:59:56.487Z,101645.25
2019-02-19T15:05:36.773Z,101648.16
2019-02-19T15:11:10.213Z,101645.84
2019-02-19T15:16:55.012Z,101639.14
2019-02-19T15:22:20.144Z,101643.13
2019-02-19T15:27:50.873Z,101643.53
2019-02-19T15:33:18.734Z,101650.34
2019-02-19T15:38:33.160Z,101653.25
2019-02-19T15:44:01.061Z,101652.45
2019-02-19T15:49:32.389Z,101670.20
2019-02-19T15:54:52.588Z,101669.00
2019-02-19T16:00:18.436Z,101667.50
2019-02-19T16:05:39.545Z,101671.23
2019-02-19T16:11:01.127Z,101679.53
2019-02-19T16:16:20.677Z,101690.94
2019-02-19T16:21:46.330Z,101679.44
2019-02-19T16:27:10.892Z,101690.05
2019-02-19T16:32:42.393Z,101682.55
2019-02-19T16:37:59.262Z,101681.30
2019-02-19T16:43:36.773Z,101683.91
2019-02-19T16:48:57.186Z,101689.67
2019-02-19T16:54:21.992Z,101690.59
2019-02-19T16:59:47.184Z,101693.95
2019-02-19T17:05:18.152Z,101694.67
2019-02-19T17:10:43.832Z,101690.50
2019-02-19T17:16:10.770Z,101694.27
2019-02-19T17:21:33.445Z,101701.05
2019-02-19T17:27:04.599Z,101715.14
2019-02-19T17:32:35.076Z,101712.71
2019-02-19T17:38:14.204Z,101711.16
2019-02-19T17:43:35.553Z,101718.33
2019-02-19T17:49:02.055Z,101720.73
2019-02-19T17:54:37.182Z,101725.70
2019-02-19T18:00:02.712Z,101732.59
2019-02-19T18:05:28.257Z,101741.34
2019-02-19T18:10:54.794Z,101750.23
2019-02-19T18:16:16.110Z,101752.09
2019-02-19T18:21:24.390Z,101753.49
2019-02-19T18:26:35.146Z,101758.41
2019-02-19T18:31:43.355Z,101758.55
2019-02-19T18:36:57.816Z,101759.91
2019-02-19T18:42:09.453Z,101762.55
2019-02-19T18:47:18.034Z,101765.59
2019-02-19T18:52:25.420Z,101773.45
2019-02-19T18:57:39.437Z,101772.63
2019-02-19T19:02:51.332Z,101768.39
2019-02-19T19:08:03.120Z,101776.40
2019-02-19T19:13:15.783Z,101772.87
2019-02-19T19:18:28.507Z,101780.66
2019-02-19T19:23:38.942Z,101784.19
2019-02-19T19:28:51.527Z,101777.79
2019-02-19T19:34:04.271Z,101780.08
2019-02-19T19:39:17.619Z,101777.55
2019-02-19T19:44:30.243Z,101777.61
2019-02-19T19:49:38.803Z,101778.06
2019-02-19T19:54:50.557Z,101778.97
2019-02-19T20:00:05.165Z,101782.09
2019-02-19T20:05:17.982Z,101780.41
2019-02-19T20:10:36.944Z,101790.88
2019-02-19T20:15:48.748Z,101788.78
2019-02-19T20:20:59.118Z,101783.17
2019-02-19T20:26:10.416Z,101785.38
2019-02-19T20:31:21.838Z,101786.73
2019-02-19T20:37:32.879Z,101799.37
2019-02-19T20:42:42.790Z,101801.12
2019-02-19T20:47:51.538Z,101793.81
2019-02-19T20:53:04.218Z,101796.83
2019-02-19T20:58:19.698Z,101792.11
2019-02-19T21:03:26.668Z,101794.77
2019-02-19T21:08:36.581Z,101797.42
2019-02-19T21:13:44.847Z,101800.07
2019-02-19T21:18:56.580Z,101807.94
2019-02-19T21:24:12.868Z,101803.22
2019-02-19T21:29:26.436Z,101807.17
2019-02-19T21:34:38.080Z,101816.37
2019-02-19T21:39:45.688Z,101814.21
2019-02-19T21:44:57.436Z,101818.59
2019-02-19T21:50:08.431Z,101822.51
2019-02-19T21:55:19.299Z,101820.39
2019-02-19T22:00:32.101Z,101816.06
2019-02-19T22:05:44.709Z,101811.30
2019-02-19T22:10:58.183Z,101817.41
2019-02-19T22:16:09.060Z,101817.84
2019-02-19T22:21:34.726Z,101815.69
2019-02-19T22:26:45.096Z,101813.15
2019-02-19T22:31:58.599Z,101818.38
2019-02-19T22:37:10.342Z,101832.72
2019-02-19T22:42:23.534Z,101833.60
2019-02-19T22:47:37.474Z,101831.02
2019-02-19T22:52:50.023Z,101827.17
2019-02-19T22:58:05.529Z,101822.41
2019-02-19T23:03:14.646Z,101813.37
2019-02-19T23:08:25.581Z,101813.37
2019-02-19T23:13:34.454Z,101817.69
2019-02-19T23:18:48.909Z,101818.12
2019-02-19T23:23:57.322Z,101820.75
2019-02-19T23:29:07.396Z,101819.91
2019-02-19T23:34:20.955Z,101818.61
2019-02-19T23:39:30.855Z,101822.41
2019-02-19T23:44:38.002Z,101817.27
2019-02-19T23:49:53.499Z,101812.95
2019-02-19T23:55:03.405Z,101812.08
